createdAt,value
2023-04-27T00:00:02.067Z,3.80
2023-04-27T00:02:37.609Z,4.22
2023-04-27T00:05:06.854Z,3.75
2023-04-27T00:07:34.792Z,3.95
2023-04-27T00:10:02.578Z,3.70
2023-04-27T00:12:30.591Z,3.90
2023-04-27T00:14:58.432Z,4.18
2023-04-27T00:17:27.665Z,4.07
2023-04-27T00:19:55.548Z,4.03
2023-04-27T00:22:23.545Z,3.97
2023-04-27T00:24:51.384Z,4.07
2023-04-27T00:27:19.213Z,4.20
2023-04-27T00:29:47.362Z,3.90
2023-04-27T00:32:15.442Z,3.90
2023-04-27T00:34:44.973Z,3.83
2023-04-27T00:37:14.213Z,3.90
2023-04-27T00:39:42.048Z,4.18
2023-04-27T00:42:14.008Z,4.07
2023-04-27T00:44:42.132Z,4.10
2023-04-27T00:47:11.977Z,4.00
2023-04-27T00:49:40.763Z,3.92
2023-04-27T00:52:09.955Z,3.90
2023-04-27T00:54:38.031Z,4.20
2023-04-27T00:57:06.437Z,4.25
2023-04-27T00:59:34.260Z,4.20
2023-04-27T01:02:02.918Z,4.05
2023-04-27T01:04:32.297Z,4.25
2023-04-27T01:07:00.320Z,4.18
2023-04-27T01:09:29.680Z,3.92
2023-04-27T01:11:58.383Z,4.30
2023-04-27T01:14:26.343Z,4.40
2023-04-27T01:16:54.252Z,4.35
2023-04-27T01:19:22.747Z,4.10
2023-04-27T01:21:51.972Z,3.90
2023-04-27T01:24:21.862Z,4.40
2023-04-27T01:26:52.023Z,4.05
2023-04-27T01:29:19.859Z,4.55
2023-04-27T01:31:48.154Z,4.18
2023-04-27T01:34:16.705Z,4.45
2023-04-27T01:36:48.425Z,4.63
2023-04-27T01:39:16.548Z,4.40
2023-04-27T01:41:45.829Z,4.63
2023-04-27T01:44:13.923Z,4.55
2023-04-27T01:46:41.923Z,4.38
2023-04-27T01:49:09.889Z,4.90
2023-04-27T01:51:37.736Z,5.00
2023-04-27T01:54:06.264Z,5.03
2023-04-27T01:56:34.251Z,4.63
2023-04-27T01:59:03.449Z,4.60
2023-04-27T02:01:32.315Z,4.40
2023-04-27T02:04:00.421Z,4.40
2023-04-27T02:06:30.318Z,4.50
2023-04-27T02:08:58.170Z,4.80
2023-04-27T02:11:26.721Z,4.38
2023-04-27T02:13:55.745Z,4.60
2023-04-27T02:16:33.214Z,5.20
2023-04-27T02:19:02.858Z,5.25
2023-04-27T02:21:30.792Z,4.68
2023-04-27T02:23:58.597Z,5.03
2023-04-27T02:26:29.465Z,5.00
2023-04-27T02:28:58.471Z,5.15
2023-04-27T02:31:26.991Z,5.50
2023-04-27T02:33:56.388Z,4.75
2023-04-27T02:36:27.821Z,5.50
2023-04-27T02:38:57.064Z,5.28
2023-04-27T02:41:27.825Z,5.40
2023-04-27T02:43:55.695Z,5.35
2023-04-27T02:46:23.487Z,5.38
2023-04-27T02:48:51.275Z,5.32
2023-04-27T02:51:20.501Z,5.07
2023-04-27T02:53:48.397Z,5.53
2023-04-27T02:56:16.591Z,5.57
2023-04-27T02:58:44.808Z,5.40
2023-04-27T03:01:12.819Z,5.80
2023-04-27T03:03:40.733Z,5.40
2023-04-27T03:06:08.783Z,5.75
2023-04-27T03:08:37.983Z,5.63
2023-04-27T03:11:06.344Z,5.97
2023-04-27T03:13:41.275Z,6.78
2023-04-27T03:16:11.334Z,5.60
2023-04-27T03:18:40.246Z,5.43
2023-04-27T03:21:09.526Z,5.93
2023-04-27T03:23:39.441Z,5.88
2023-04-27T03:26:08.402Z,6.63
2023-04-27T03:28:36.844Z,5.80
2023-04-27T03:31:07.180Z,5.88
2023-04-27T03:33:36.253Z,5.50
2023-04-27T03:36:05.387Z,6.10
2023-04-27T03:38:34.551Z,6.15
2023-04-27T03:41:04.067Z,6.32
2023-04-27T03:43:31.901Z,6.03
2023-04-27T03:45:59.901Z,6.47
2023-04-27T03:48:27.895Z,6.18
2023-04-27T03:50:56.728Z,7.18
2023-04-27T03:53:24.536Z,6.72
2023-04-27T03:55:52.641Z,6.43
2023-04-27T03:58:21.896Z,6.05
2023-04-27T04:01:10.101Z,6.07
2023-04-27T04:03:38.598Z,6.60
2023-04-27T04:06:09.198Z,6.88
2023-04-27T04:08:37.386Z,6.13
2023-04-27T04:11:05.480Z,6.55
2023-04-27T04:13:37.110Z,6.60
2023-04-27T04:16:06.248Z,6.22
2023-04-27T04:18:34.540Z,6.60
2023-04-27T04:21:02.747Z,6.57
2023-04-27T04:23:30.564Z,6.43
2023-04-27T04:25:58.738Z,6.25
2023-04-27T04:28:30.705Z,6.60
2023-04-27T04:31:02.034Z,10.85
2023-04-27T04:33:29.924Z,7.45
2023-04-27T04:35:58.722Z,8.10
2023-04-27T04:38:26.616Z,6.40
2023-04-27T04:40:54.708Z,7.32
2023-04-27T04:43:22.609Z,6.88
2023-04-27T04:45:50.898Z,6.50
2023-04-27T04:48:20.366Z,7.20
2023-04-27T04:50:48.310Z,6.65
2023-04-27T04:53:16.361Z,7.93
2023-04-27T04:55:44.199Z,8.30
2023-04-27T04:58:12.093Z,8.07
2023-04-27T05:00:39.893Z,7.13
2023-04-27T05:03:08.131Z,6.68
2023-04-27T05:05:37.808Z,7.22
2023-04-27T05:08:06.073Z,6.30
2023-04-27T05:10:33.906Z,6.70
2023-04-27T05:13:01.744Z,6.63
2023-04-27T05:15:29.584Z,5.82
2023-04-27T05:17:57.452Z,6.70
2023-04-27T05:20:25.399Z,6.25
2023-04-27T05:22:54.697Z,6.53
2023-04-27T05:25:22.511Z,6.13
2023-04-27T05:27:50.628Z,6.72
2023-04-27T05:30:18.461Z,6.30
2023-04-27T05:32:46.332Z,6.22
2023-04-27T05:35:14.330Z,6.80
2023-04-27T05:37:42.189Z,6.43
2023-04-27T05:40:12.474Z,6.97
2023-04-27T05:42:40.338Z,6.65
2023-04-27T05:45:09.479Z,6.72
2023-04-27T05:47:37.381Z,6.53
2023-04-27T05:50:05.769Z,6.43
2023-04-27T05:52:34.972Z,6.63
2023-04-27T05:55:04.034Z,6.22
2023-04-27T05:57:33.504Z,7.30
2023-04-27T06:00:01.536Z,6.22
2023-04-27T06:02:40.430Z,6.10
2023-04-27T06:05:09.092Z,6.10
2023-04-27T06:07:37.553Z,6.45
2023-04-27T06:10:06.330Z,6.18
2023-04-27T06:12:35.640Z,5.93
2023-04-27T06:15:08.309Z,6.05
2023-04-27T06:17:36.398Z,5.72
2023-04-27T06:20:06.865Z,6.60
2023-04-27T06:22:34.898Z,5.97
2023-04-27T06:25:03.372Z,5.95
2023-04-27T06:27:31.243Z,6.03
2023-04-27T06:30:01.432Z,5.63
2023-04-27T06:32:29.291Z,5.95
2023-04-27T06:34:57.123Z,6.00
2023-04-27T06:37:25.369Z,5.85
2023-04-27T06:39:53.142Z,6.07
2023-04-27T06:42:21.160Z,5.40
2023-04-27T06:44:49.080Z,5.40
2023-04-27T06:47:18.239Z,5.93
2023-04-27T06:49:47.464Z,5.95
2023-04-27T06:52:17.094Z,7.10
2023-04-27T06:54:44.977Z,6.20
2023-04-27T06:57:12.740Z,5.75
2023-04-27T06:59:40.625Z,5.68
2023-04-27T07:02:09.029Z,6.70
2023-04-27T07:04:38.368Z,5.70
2023-04-27T07:07:06.371Z,6.03
2023-04-27T07:09:34.304Z,6.82
2023-04-27T07:12:03.088Z,6.32
2023-04-27T07:14:31.706Z,6.28
2023-04-27T07:16:59.507Z,6.63
2023-04-27T07:19:27.395Z,5.90
2023-04-27T07:21:56.625Z,5.93
2023-04-27T07:24:24.515Z,6.13
2023-04-27T07:26:52.345Z,6.35
2023-04-27T07:29:27.113Z,5.85
2023-04-27T07:31:56.106Z,6.10
2023-04-27T07:34:24.361Z,6.50
2023-04-27T07:36:54.108Z,6.22
2023-04-27T07:39:24.228Z,6.38
2023-04-27T07:41:52.628Z,6.10
2023-04-27T07:44:21.209Z,6.15
2023-04-27T07:46:49.412Z,6.63
2023-04-27T07:49:17.646Z,6.32
2023-04-27T07:51:45.491Z,6.50
2023-04-27T07:54:14.039Z,6.45
2023-04-27T07:56:43.955Z,5.80
2023-04-27T07:59:12.125Z,5.93
2023-04-27T08:01:40.433Z,7.30
2023-04-27T08:04:08.504Z,6.72
2023-04-27T08:06:37.070Z,6.15
2023-04-27T08:09:05.506Z,5.88
2023-04-27T08:11:33.454Z,5.78
2023-04-27T08:14:02.781Z,6.07
2023-04-27T08:16:31.263Z,6.28
2023-04-27T08:19:00.601Z,5.90
2023-04-27T08:21:29.582Z,6.15
2023-04-27T08:23:57.610Z,5.95
2023-04-27T08:26:26.481Z,6.13
2023-04-27T08:28:56.396Z,6.45
2023-04-27T08:31:26.408Z,5.55
2023-04-27T08:33:54.680Z,5.95
2023-04-27T08:36:24.388Z,5.97
2023-04-27T08:38:53.127Z,5.63
2023-04-27T08:41:22.614Z,5.90
2023-04-27T08:43:53.841Z,5.68
2023-04-27T08:46:22.837Z,5.40
2023-04-27T08:48:52.596Z,5.65
2023-04-27T08:51:22.289Z,5.35
2023-04-27T08:53:51.874Z,5.60
2023-04-27T08:56:20.278Z,5.63
2023-04-27T08:58:48.159Z,5.40
2023-04-27T09:01:16.755Z,4.95
2023-04-27T09:03:46.765Z,5.40
2023-04-27T09:06:16.730Z,5.53
2023-04-27T09:08:45.910Z,5.82
2023-04-27T09:11:14.468Z,5.07
2023-04-27T09:13:45.520Z,5.45
2023-04-27T09:16:14.906Z,5.60
2023-04-27T09:18:44.455Z,5.47
2023-04-27T09:21:12.634Z,5.50
2023-04-27T09:23:41.960Z,5.47
2023-04-27T09:26:10.082Z,5.72
2023-04-27T09:28:40.347Z,4.78
2023-04-27T09:31:09.387Z,5.90
2023-04-27T09:33:37.866Z,6.97
2023-04-27T09:36:07.434Z,6.07
2023-04-27T09:38:36.005Z,5.85
2023-04-27T09:41:05.451Z,5.90
2023-04-27T09:43:33.651Z,5.97
2023-04-27T09:46:01.709Z,5.57
2023-04-27T09:48:29.751Z,5.63
2023-04-27T09:50:57.620Z,5.20
2023-04-27T09:53:30.890Z,5.95
2023-04-27T09:56:14.115Z,5.22
2023-04-27T09:59:04.212Z,6.03
2023-04-27T10:01:40.782Z,5.50
2023-04-27T10:04:22.334Z,5.63
2023-04-27T10:07:00.241Z,5.90
2023-04-27T10:09:31.712Z,5.70
2023-04-27T10:12:16.129Z,5.55
2023-04-27T10:17:19.586Z,5.75
2023-04-27T10:19:58.693Z,5.50
2023-04-27T10:22:39.970Z,5.30
2023-04-27T10:25:17.394Z,6.53
2023-04-27T10:27:52.012Z,6.38
2023-04-27T10:30:21.466Z,6.00
2023-04-27T10:32:54.409Z,6.22
2023-04-27T10:35:24.526Z,5.30
2023-04-27T10:37:53.715Z,5.80
2023-04-27T10:40:21.907Z,6.05
2023-04-27T10:42:51.656Z,5.78
2023-04-27T10:45:31.795Z,6.07
2023-04-27T10:48:02.469Z,5.88
2023-04-27T10:50:32.024Z,6.03
2023-04-27T10:53:06.154Z,6.18
2023-04-27T10:55:36.148Z,6.00
2023-04-27T10:58:05.714Z,5.72
2023-04-27T11:00:37.957Z,6.05
2023-04-27T11:03:16.562Z,5.78
2023-04-27T11:05:45.499Z,5.20
2023-04-27T11:08:14.859Z,5.50
2023-04-27T11:10:46.070Z,5.50
2023-04-27T11:13:17.066Z,5.80
2023-04-27T11:15:47.382Z,5.57
2023-04-27T11:18:17.213Z,5.72
2023-04-27T11:20:46.553Z,6.10
2023-04-27T11:23:25.034Z,5.85
2023-04-27T11:25:53.198Z,5.85
2023-04-27T11:28:23.202Z,6.03
2023-04-27T11:30:57.306Z,5.18
2023-04-27T11:33:25.148Z,4.38
2023-04-27T11:35:53.674Z,4.50
2023-04-27T11:38:22.886Z,5.43
2023-04-27T11:41:01.495Z,5.97
2023-04-27T11:43:30.831Z,4.80
2023-04-27T11:45:59.304Z,5.72
2023-04-27T11:48:28.813Z,4.45
2023-04-27T11:51:00.716Z,4.30
2023-04-27T11:53:32.392Z,5.35
2023-04-27T11:56:02.177Z,5.93
2023-04-27T11:58:31.392Z,5.35
2023-04-27T12:00:59.344Z,5.40
2023-04-27T12:03:27.628Z,5.63
2023-04-27T12:05:55.987Z,5.50
2023-04-27T12:08:24.852Z,5.30
2023-04-27T12:10:53.493Z,6.03
2023-04-27T12:13:21.332Z,5.60
2023-04-27T12:15:50.708Z,5.50
2023-04-27T12:18:18.985Z,5.22
2023-04-27T12:20:47.168Z,4.90
2023-04-27T12:23:15.109Z,5.28
2023-04-27T12:25:44.132Z,5.30
2023-04-27T12:28:12.243Z,6.00
2023-04-27T12:30:40.163Z,5.30
2023-04-27T12:33:11.305Z,5.30
2023-04-27T12:35:39.291Z,5.07
2023-04-27T12:38:07.130Z,4.97
2023-04-27T12:40:35.112Z,4.80
2023-04-27T12:43:03.006Z,4.45
2023-04-27T12:45:30.832Z,5.35
2023-04-27T12:48:03.991Z,4.80
2023-04-27T12:50:33.840Z,4.65
2023-04-27T12:53:01.686Z,4.50
2023-04-27T12:55:33.785Z,4.65
2023-04-27T12:58:02.283Z,5.07
2023-04-27T13:00:30.531Z,4.35
2023-04-27T13:02:59.030Z,4.90
2023-04-27T13:05:27.873Z,4.57
2023-04-27T13:07:58.468Z,4.70
2023-04-27T13:10:26.371Z,5.05
2023-04-27T13:12:55.980Z,4.95
2023-04-27T13:15:23.908Z,4.85
2023-04-27T13:17:53.199Z,4.30
2023-04-27T13:20:21.701Z,4.55
2023-04-27T13:22:49.617Z,3.95
2023-04-27T13:25:20.070Z,3.95
2023-04-27T13:27:47.974Z,4.13
2023-04-27T13:30:17.872Z,4.75
2023-04-27T13:32:46.236Z,4.28
2023-04-27T13:35:14.254Z,4.60
2023-04-27T13:37:42.367Z,4.10
2023-04-27T13:40:12.655Z,4.18
2023-04-27T13:42:42.369Z,4.07
2023-04-27T13:45:11.619Z,4.68
2023-04-27T13:47:40.934Z,4.20
2023-04-27T13:50:11.038Z,4.50
2023-04-27T13:52:39.968Z,4.32
2023-04-27T13:55:10.274Z,4.32
2023-04-27T13:57:38.265Z,4.20
2023-04-27T14:00:11.245Z,4.50
2023-04-27T14:02:40.158Z,5.03
2023-04-27T14:05:08.837Z,4.50
2023-04-27T14:07:37.048Z,3.85
2023-04-27T14:10:05.252Z,3.67
2023-04-27T14:12:33.554Z,3.70
2023-04-27T14:15:01.373Z,3.75
2023-04-27T14:17:30.824Z,4.60
2023-04-27T14:19:58.668Z,3.80
2023-04-27T14:22:26.591Z,3.40
2023-04-27T14:24:56.474Z,4.05
2023-04-27T14:27:24.618Z,3.55
2023-04-27T14:29:52.458Z,3.63
2023-04-27T14:32:21.115Z,3.88
2023-04-27T14:34:50.818Z,3.63
2023-04-27T14:37:18.839Z,3.55
2023-04-27T14:39:46.959Z,3.60
2023-04-27T14:42:14.826Z,3.80
2023-04-27T14:44:42.692Z,3.85
2023-04-27T14:47:10.612Z,3.65
2023-04-27T14:49:38.889Z,3.40
2023-04-27T14:52:08.206Z,3.65
2023-04-27T14:54:38.434Z,3.75
2023-04-27T14:57:06.379Z,4.00
2023-04-27T14:59:35.195Z,3.63
2023-04-27T15:02:03.257Z,3.90
2023-04-27T15:04:31.351Z,3.70
2023-04-27T15:06:59.212Z,4.50
2023-04-27T15:09:28.524Z,3.90
2023-04-27T15:11:56.370Z,4.00
2023-04-27T15:14:24.278Z,4.18
2023-04-27T15:16:52.561Z,4.32
2023-04-27T15:19:20.526Z,4.05
2023-04-27T15:21:48.580Z,3.72
2023-04-27T15:24:16.409Z,2.97
2023-04-27T15:26:47.872Z,4.00
2023-04-27T15:29:16.048Z,3.72
2023-04-27T15:31:44.310Z,3.83
2023-04-27T15:34:12.180Z,3.70
2023-04-27T15:36:40.154Z,3.75
2023-04-27T15:39:09.987Z,3.75
2023-04-27T15:41:38.162Z,4.22
2023-04-27T15:44:08.034Z,3.90
2023-04-27T15:46:36.421Z,3.85
2023-04-27T15:49:04.372Z,4.47
2023-04-27T15:51:32.324Z,3.92
2023-04-27T15:54:00.132Z,3.60
2023-04-27T15:56:30.521Z,3.97
2023-04-27T15:58:58.761Z,3.75
2023-04-27T16:01:28.044Z,3.75
2023-04-27T16:03:56.517Z,3.75
2023-04-27T16:06:30.202Z,3.60
2023-04-27T16:08:58.049Z,3.97
2023-04-27T16:11:25.896Z,4.03
2023-04-27T16:13:53.836Z,3.95
2023-04-27T16:16:21.950Z,4.03
2023-04-27T16:18:51.223Z,3.92
2023-04-27T16:21:19.314Z,3.70
2023-04-27T16:23:47.181Z,3.90
2023-04-27T16:26:15.010Z,3.80
2023-04-27T16:28:43.206Z,3.75
2023-04-27T16:31:11.200Z,3.92
2023-04-27T16:33:39.054Z,3.63
2023-04-27T16:36:08.859Z,4.03
2023-04-27T16:38:38.722Z,4.00
2023-04-27T16:41:07.471Z,3.40
2023-04-27T16:43:35.361Z,6.07
2023-04-27T16:46:03.287Z,5.07
2023-04-27T16:48:31.281Z,4.72
2023-04-27T16:51:00.064Z,3.55
2023-04-27T16:53:29.321Z,3.95
2023-04-27T16:56:01.128Z,3.65
2023-04-27T16:58:29.431Z,3.40
2023-04-27T17:00:58.081Z,2.95
2023-04-27T17:03:26.126Z,3.20
2023-04-27T17:05:53.984Z,3.20
2023-04-27T17:08:21.839Z,3.15
2023-04-27T17:10:51.357Z,3.63
2023-04-27T17:13:19.206Z,3.28
2023-04-27T17:15:47.139Z,3.42
2023-04-27T17:18:15.034Z,3.08
2023-04-27T17:20:42.863Z,3.25
2023-04-27T17:23:10.763Z,3.10
2023-04-27T17:25:38.592Z,3.40
2023-04-27T17:28:09.048Z,3.17
2023-04-27T17:30:36.960Z,3.38
2023-04-27T17:33:05.233Z,3.08
2023-04-27T17:35:33.407Z,2.88
2023-04-27T17:38:01.241Z,3.38
2023-04-27T17:40:29.130Z,2.80
2023-04-27T17:42:57.823Z,2.70
2023-04-27T17:45:28.732Z,3.03
2023-04-27T17:47:56.619Z,2.75
2023-04-27T17:50:26.043Z,3.10
2023-04-27T17:52:54.173Z,2.70
2023-04-27T17:55:22.182Z,2.83
2023-04-27T17:57:50.397Z,2.80
2023-04-27T18:00:19.280Z,3.03
2023-04-27T18:02:49.743Z,2.72
2023-04-27T18:05:18.016Z,2.83
2023-04-27T18:07:47.174Z,3.05
2023-04-27T18:10:15.246Z,2.80
2023-04-27T18:12:43.095Z,2.85
2023-04-27T18:15:11.581Z,2.90
2023-04-27T18:17:39.523Z,2.92
2023-04-27T18:20:10.797Z,3.00
2023-04-27T18:22:39.840Z,2.90
2023-04-27T18:25:08.848Z,3.33
2023-04-27T18:27:38.473Z,3.15
2023-04-27T18:30:08.301Z,3.33
2023-04-27T18:32:36.499Z,3.47
2023-04-27T18:35:05.652Z,3.33
2023-04-27T18:37:35.066Z,3.20
2023-04-27T18:40:05.769Z,3.90
2023-04-27T18:42:33.624Z,3.60
2023-04-27T18:45:01.864Z,3.63
2023-04-27T18:47:29.750Z,3.67
2023-04-27T18:49:57.690Z,3.42
2023-04-27T18:52:25.778Z,3.10
2023-04-27T18:54:55.309Z,3.20
2023-04-27T18:57:23.406Z,3.33
2023-04-27T18:59:51.326Z,3.75
2023-04-27T19:02:19.896Z,4.28
2023-04-27T19:04:52.886Z,3.65
2023-04-27T19:07:29.993Z,3.30
2023-04-27T19:09:59.187Z,3.72
2023-04-27T19:12:27.032Z,3.20
2023-04-27T19:14:55.009Z,3.33
2023-04-27T19:17:23.088Z,3.63
2023-04-27T19:19:51.139Z,3.50
2023-04-27T19:22:19.121Z,4.70
2023-04-27T19:24:46.998Z,4.07
2023-04-27T19:27:16.419Z,4.30
2023-04-27T19:29:52.504Z,4.20
2023-04-27T19:32:20.965Z,3.90
2023-04-27T19:34:49.538Z,3.65
2023-04-27T19:37:18.682Z,3.78
2023-04-27T19:39:46.896Z,3.80
2023-04-27T19:42:16.291Z,3.70
2023-04-27T19:44:44.191Z,3.20
2023-04-27T19:47:12.022Z,3.85
2023-04-27T19:49:39.946Z,3.40
2023-04-27T19:52:07.997Z,3.53
2023-04-27T19:54:38.309Z,3.22
2023-04-27T19:57:06.648Z,3.60
2023-04-27T19:59:35.996Z,3.90
2023-04-27T20:02:04.298Z,3.85
2023-04-27T20:04:32.877Z,4.15
2023-04-27T20:07:01.190Z,4.32
2023-04-27T20:09:29.544Z,4.22
2023-04-27T20:11:57.535Z,4.07
2023-04-27T20:14:28.875Z,3.97
2023-04-27T20:16:58.174Z,3.90
2023-04-27T20:19:26.487Z,3.97
2023-04-27T20:21:54.309Z,3.65
2023-04-27T20:24:22.287Z,3.95
2023-04-27T20:26:50.539Z,3.63
2023-04-27T20:29:18.541Z,3.70
2023-04-27T20:31:48.303Z,4.07
2023-04-27T20:34:17.761Z,3.65
2023-04-27T20:36:45.709Z,3.38
2023-04-27T20:39:13.552Z,3.70
2023-04-27T20:41:41.976Z,3.42
2023-04-27T20:44:10.357Z,3.92
2023-04-27T20:46:38.549Z,4.00
2023-04-27T20:49:06.925Z,3.63
2023-04-27T20:51:36.629Z,3.90
2023-04-27T20:54:04.547Z,3.80
2023-04-27T20:56:32.960Z,3.72
2023-04-27T20:59:00.859Z,3.78
2023-04-27T21:01:28.729Z,3.13
2023-04-27T21:03:56.643Z,3.70
2023-04-27T21:06:24.601Z,3.85
2023-04-27T21:08:53.844Z,3.75
2023-04-27T21:11:21.678Z,3.30
2023-04-27T21:13:49.569Z,3.63
2023-04-27T21:16:17.445Z,3.30
2023-04-27T21:18:45.417Z,3.28
2023-04-27T21:21:13.241Z,3.13
2023-04-27T21:23:41.152Z,3.35
2023-04-27T21:26:10.758Z,3.40
2023-04-27T21:28:38.612Z,3.25
2023-04-27T21:31:06.571Z,3.67
2023-04-27T21:33:34.457Z,3.20
2023-04-27T21:36:04.545Z,3.40
2023-04-27T21:38:32.598Z,4.05
2023-04-27T21:41:00.537Z,4.20
2023-04-27T21:43:29.774Z,3.97
2023-04-27T21:45:57.609Z,3.92
2023-04-27T21:48:25.468Z,3.78
2023-04-27T21:50:53.244Z,4.70
2023-04-27T21:53:21.016Z,4.20
2023-04-27T21:55:49.438Z,5.03
2023-04-27T21:58:17.232Z,4.07
2023-04-27T22:00:46.429Z,4.50
2023-04-27T22:03:14.368Z,4.28
2023-04-27T22:05:42.290Z,4.50
2023-04-27T22:08:10.214Z,4.22
2023-04-27T22:10:38.062Z,4.10
2023-04-27T22:13:17.557Z,4.32
2023-04-27T22:15:48.415Z,3.90
2023-04-27T22:18:16.328Z,4.07
2023-04-27T22:20:44.576Z,3.65
2023-04-27T22:23:12.549Z,3.92
2023-04-27T22:25:42.586Z,3.88
2023-04-27T22:28:10.752Z,3.78
2023-04-27T22:30:38.871Z,3.90
2023-04-27T22:33:08.360Z,4.05
2023-04-27T22:35:37.410Z,3.95
2023-04-27T22:38:05.904Z,4.25
2023-04-27T22:40:34.194Z,4.63
2023-04-27T22:43:02.004Z,4.35
2023-04-27T22:45:29.905Z,4.00
2023-04-27T22:47:58.539Z,4.35
2023-04-27T22:50:27.817Z,3.92
2023-04-27T22:52:55.695Z,4.40
2023-04-27T22:55:23.608Z,4.32
2023-04-27T22:57:53.598Z,4.03
2023-04-27T23:00:21.769Z,4.32
2023-04-27T23:02:49.772Z,4.15
2023-04-27T23:05:17.723Z,4.47
2023-04-27T23:07:46.958Z,4.50
2023-04-27T23:10:15.103Z,4.38
2023-04-27T23:12:43.042Z,4.22
2023-04-27T23:15:11.724Z,4.18
2023-04-27T23:17:39.612Z,4.43
2023-04-27T23:20:20.471Z,4.50
2023-04-27T23:22:57.074Z,4.30
2023-04-27T23:25:25.194Z,4.00
2023-04-27T23:27:53.230Z,3.85
2023-04-27T23:30:21.960Z,3.90
2023-04-27T23:32:50.024Z,4.10
2023-04-27T23:35:17.910Z,4.32
2023-04-27T23:37:45.796Z,3.90
2023-04-27T23:40:15.221Z,4.43
2023-04-27T23:42:43.038Z,4.75
2023-04-27T23:45:11.799Z,4.95
2023-04-27T23:47:39.765Z,4.60
2023-04-27T23:50:08.899Z,4.15
2023-04-27T23:52:37.063Z,4.47
2023-04-27T23:55:05.498Z,4.28
2023-04-27T23:57:34.726Z,4.68
